Terminal Aerodrome Forecast
Issued by NWS

Home | Current Version | Previous Version | Text Only | Print | Product List | Glossary On
Versions: 1 2 3 4 5 6 7 8 9 10 11 12 13 14 15 16 17 18 19
000
FTUS43 KIND 222026 AAB
TAFHUF
TAF AMD
KHUF 222026Z 2220/2318 18014G20KT P6SM VCSH SCT020 BKN050
      TEMPO 2221/2301 BKN020
     FM230100 17012KT P6SM VCSH OVC015
     FM230500 18011KT P6SM VCTS OVC015CB
     FM230600 19011KT P6SM SHRA VCTS OVC015CB
     FM231100 22009KT P6SM SHRA OVC015
     FM231500 24009KT 5SM SHRA OVC015=

USA.gov is the U.S. government's official web portal to all federal, state and local government web resources and services.